ジャージー島 の空港の天気 - METARとTAF

ジャージー空港 ( EGJJ / JER ) - ジャージー島 ジャージー島
飛行場実況気象(Metar)
観測時間09/26 21:50 BST (09/26 20:50 UTC)
風向・風速北 5m/s
視程10km以上
天気現象
全天の8割程度の雲 雲底高度 1100m
気温13℃
湿度58%
気圧1015hPa
METAREGJJ 262050Z AUTO 36010KT 320V040 9999 BKN036/// 13/05 Q1015
過去の天気等 Google飛行場航空写真 Wunderground天気予報

過去48時間のMETAR

飛行場予報(TAF)
発表時間: 9/26 20:58 BST (9/26 19:58 UTC)
予報対象時間: 26日22時 BST ~ 27日7時 BST
風向・風速北 6m/s
視程10km以上
少しの雲 雲底高度 1220m
27日4時 BST ~ 27日7時 BST に一時的に
風向・風速北 9m/s 瞬間風速 14m/s
TAF EGJJ 261958Z 2621/2706 35011KT 9999 FEW040
TEMPO 2703/2706 35017G27KT